Saturday, November 22, 2014, 8:59 AM EST

KJYO, Leesburg / Godfrey

Location: Leesburg, VA, United States Lat: 39.083
Local Time: 8:59 AM EST (13:59 GMT) Lon: -77.567
Time Zone: US/Eastern Elev: 390 ft

Show me the last for .
Show Decoded

2014-11-22 08:35 METAR KJYO 221335Z AUTO 17005KT 10SM CLR M02/M07 A3049 RMK AO2 =
2014-11-22 08:15 METAR KJYO 221315Z AUTO 00000KT 10SM CLR M05/M08 A3050 RMK AO2 =
2014-11-22 07:55 METAR KJYO 221255Z AUTO 00000KT 10SM CLR M06/M08 A3050 RMK AO2 =
2014-11-22 07:35 METAR KJYO 221235Z AUTO 00000KT 10SM CLR M06/M08 A3050 RMK AO2 =
2014-11-22 06:55 METAR KJYO 221155Z AUTO 00000KT 10SM CLR M08/M09 A3051 RMK AO2 =
2014-11-22 06:35 METAR KJYO 221135Z AUTO 19003KT 10SM CLR M07/M08 A3050 RMK AO2 =
2014-11-22 06:15 METAR KJYO 221115Z AUTO 00000KT 10SM CLR M07/M08 A3050 RMK AO2 =
2014-11-22 05:55 METAR KJYO 221055Z AUTO 00000KT 10SM CLR M07/M08 A3051 RMK AO2 =
2014-11-22 05:35 METAR KJYO 221035Z AUTO 00000KT 10SM CLR M08/M08 A3052 RMK AO2 =
2014-11-22 05:15 METAR KJYO 221015Z AUTO 00000KT 10SM CLR M08/M08 A3052 RMK AO2 =
2014-11-22 04:55 METAR KJYO 220955Z AUTO 00000KT 10SM CLR M07/M08 A3052 RMK AO2 =
2014-11-22 04:35 METAR KJYO 220935Z AUTO 00000KT 10SM CLR M07/M08 A3053 RMK AO2 =
2014-11-22 04:15 METAR KJYO 220915Z AUTO 20005KT 10SM CLR M06/M09 A3053 RMK AO2 =
2014-11-22 03:55 METAR KJYO 220855Z AUTO 20003KT 10SM CLR M06/M09 A3053 RMK AO2 =
2014-11-22 03:35 METAR KJYO 220835Z AUTO 00000KT 10SM CLR M06/M09 A3053 RMK AO2 =
2014-11-22 03:15 METAR KJYO 220815Z AUTO 00000KT 10SM CLR M06/M09 A3054 RMK AO2 =
2014-11-22 02:35 METAR KJYO 220735Z AUTO 00000KT 10SM CLR M05/M08 A3055 RMK AO2 =
2014-11-22 02:15 METAR KJYO 220715Z AUTO 00000KT 10SM CLR M05/M09 A3055 RMK AO2 =
2014-11-22 01:55 METAR KJYO 220655Z AUTO 23004KT 10SM CLR M05/M08 A3055 RMK AO2 =
2014-11-22 01:35 METAR KJYO 220635Z AUTO 00000KT 10SM CLR M06/M08 A3054 RMK AO2 =
2014-11-22 01:15 METAR KJYO 220615Z AUTO 27005KT 10SM CLR M06/M08 A3054 RMK AO2 =
2014-11-22 00:55 METAR KJYO 220555Z AUTO 27003KT 10SM CLR M05/M08 A3054 RMK AO2 =
2014-11-22 00:35 METAR KJYO 220535Z AUTO 00000KT 10SM CLR M06/M08 A3055 RMK AO2 =
2014-11-22 00:15 METAR KJYO 220515Z AUTO 00000KT 10SM CLR M05/M08 A3054 RMK AO2 =
2014-11-21 23:35 METAR KJYO 220435Z AUTO 24003KT 10SM CLR M05/M08 A3054 RMK AO2 =
2014-11-21 23:15 METAR KJYO 220415Z AUTO 00000KT 10SM CLR M06/M08 A3055 RMK AO2 =
2014-11-21 22:55 METAR KJYO 220355Z AUTO 00000KT 10SM CLR M05/M08 A3055 RMK AO2 =
2014-11-21 22:35 METAR KJYO 220335Z AUTO 00000KT 10SM CLR M05/M08 A3055 RMK AO2 =
2014-11-21 22:15 METAR KJYO 220315Z AUTO 00000KT 10SM CLR M05/M08 A3056 RMK AO2 =
2014-11-21 21:55 METAR KJYO 220255Z AUTO 32003KT 10SM CLR M05/M08 A3056 RMK AO2 =
2014-11-21 21:35 METAR KJYO 220235Z AUTO 00000KT 10SM CLR M03/M09 A3056 RMK AO2 =
2014-11-21 21:15 METAR KJYO 220215Z AUTO 00000KT 10SM CLR M03/M09 A3055 RMK AO2 =
2014-11-21 20:35 METAR KJYO 220135Z AUTO 00000KT 10SM CLR M02/M09 A3054 RMK AO2 =
2014-11-21 20:15 METAR KJYO 220115Z AUTO 00000KT 10SM CLR M03/M09 A3054 RMK AO2 =
2014-11-21 19:55 METAR KJYO 220055Z AUTO 00000KT 10SM CLR M02/M10 A3054 RMK AO2 =
2014-11-21 19:35 METAR KJYO 220035Z AUTO 00000KT 10SM CLR 00/M10 A3054 RMK AO2 =
2014-11-21 19:15 METAR KJYO 220015Z AUTO 00000KT 10SM CLR 00/M10 A3054 RMK AO2 =
2014-11-21 18:55 METAR KJYO 212355Z AUTO 02003KT 10SM CLR 00/M11 A3054 RMK AO2 =
2014-11-21 18:35 METAR KJYO 212335Z AUTO 03004KT 10SM CLR 00/M10 A3053 RMK AO2 =
2014-11-21 18:15 METAR KJYO 212315Z AUTO 00000KT 10SM CLR 00/M10 A3053 RMK AO2 =
2014-11-21 17:55 METAR KJYO 212255Z AUTO 00000KT 10SM CLR 00/M11 A3052 RMK AO2 =
2014-11-21 17:35 METAR KJYO 212235Z AUTO 00000KT 10SM CLR 00/M11 A3052 RMK AO2 =
2014-11-21 17:15 METAR KJYO 212215Z AUTO 32009KT 10SM CLR 00/M11 A3051 RMK AO2 =
2014-11-21 16:55 METAR KJYO 212155Z AUTO 33004KT 10SM CLR 00/M11 A3050 RMK AO2 =
2014-11-21 16:35 METAR KJYO 212135Z AUTO 30005KT 10SM CLR 00/M11 A3050 RMK AO2 =
2014-11-21 16:15 METAR KJYO 212115Z AUTO 32006KT 10SM CLR 01/M11 A3050 RMK AO2 =
2014-11-21 15:55 METAR KJYO 212055Z AUTO 32007G15KT 10SM CLR 01/M11 A3048 RMK AO2 =
2014-11-21 15:35 METAR KJYO 212035Z AUTO 32010KT 10SM CLR 02/M11 A3048 RMK AO2 =
2014-11-21 15:15 METAR KJYO 212015Z AUTO 32010G14KT 10SM CLR 02/M11 A3047 RMK AO2 =
2014-11-21 14:55 METAR KJYO 211955Z AUTO 31011G16KT 10SM CLR 02/M11 A3046 RMK AO2 =
2014-11-21 14:35 METAR KJYO 211935Z AUTO 31009KT 10SM CLR 02/M11 A3046 RMK AO2 =
2014-11-21 14:15 METAR KJYO 211915Z AUTO 30010G14KT 270V340 10SM CLR 02/M11 A3046 RMK AO2 =
2014-11-21 13:55 METAR KJYO 211855Z AUTO 31012KT 10SM CLR 02/M11 A3046 RMK AO2 =
2014-11-21 13:35 METAR KJYO 211835Z AUTO 35014KT 10SM CLR 02/M11 A3046 RMK AO2 =
2014-11-21 13:15 METAR KJYO 211815Z AUTO 29008G16KT 260V320 10SM CLR 02/M11 A3046 RMK AO2 =
2014-11-21 12:55 METAR KJYO 211755Z AUTO 33013G19KT 10SM CLR 02/M11 A3045 RMK AO2 =
2014-11-21 12:35 METAR KJYO 211735Z AUTO 32012G18KT 10SM CLR 01/M11 A3045 RMK AO2 =
2014-11-21 12:15 METAR KJYO 211715Z AUTO 31015G20KT 10SM CLR 01/M11 A3045 RMK AO2 =
2014-11-21 10:55 METAR KJYO 211555Z AUTO 32011G19KT 10SM SCT060 01/M11 A3046 RMK AO2 =
2014-11-21 10:35 METAR KJYO 211535Z AUTO 33014G20KT 10SM SCT060 00/M10 A3046 RMK AO2 =
2014-11-21 10:15 METAR KJYO 211515Z AUTO 33012G15KT 10SM SCT050 00/M10 A3046 RMK AO2 =
2014-11-21 09:55 METAR KJYO 211455Z AUTO 35013G19KT 10SM BKN050 00/M11 A3045 RMK AO2 =
2014-11-21 09:35 METAR KJYO 211435Z AUTO 32011G17KT 10SM BKN050 00/M10 A3044 RMK AO2 =
2014-11-21 09:15 METAR KJYO 211415Z AUTO 35014G19KT 10SM SCT050 00/M11 A3043 RMK AO2 =

Support USWX by starting your Amazon purchase here.